sensor_id;sensor_type;location;lat;lon;timestamp;temperature;humidity
41481;DHT22;27217;51.220;5.308;2024-03-07T00:00:07;5.90;99.90
41481;DHT22;27217;51.220;5.308;2024-03-07T00:02:43;5.90;99.90
41481;DHT22;27217;51.220;5.308;2024-03-07T00:05:09;5.80;99.90
41481;DHT22;27217;51.220;5.308;2024-03-07T00:07:35;5.80;99.90
41481;DHT22;27217;51.220;5.308;2024-03-07T00:10:01;5.60;99.90
41481;DHT22;27217;51.220;5.308;2024-03-07T00:12:28;5.50;99.90
41481;DHT22;27217;51.220;5.308;2024-03-07T00:14:54;5.40;99.90
41481;DHT22;27217;51.220;5.308;2024-03-07T00:17:19;5.50;99.90
41481;DHT22;27217;51.220;5.308;2024-03-07T00:19:45;5.50;99.90
41481;DHT22;27217;51.220;5.308;2024-03-07T00:22:13;5.40;99.90
41481;DHT22;27217;51.220;5.308;2024-03-07T00:24:38;5.30;99.90
41481;DHT22;27217;51.220;5.308;2024-03-07T00:27:04;5.40;99.90
41481;DHT22;27217;51.220;5.308;2024-03-07T00:29:29;5.40;99.90
41481;DHT22;27217;51.220;5.308;2024-03-07T00:31:55;5.40;99.90
41481;DHT22;27217;51.220;5.308;2024-03-07T00:34:20;5.40;99.90
41481;DHT22;27217;51.220;5.308;2024-03-07T00:36:48;5.40;99.90
41481;DHT22;27217;51.220;5.308;2024-03-07T00:39:14;5.30;99.90
41481;DHT22;27217;51.220;5.308;2024-03-07T00:41:39;5.30;99.90
41481;DHT22;27217;51.220;5.308;2024-03-07T00:44:06;5.30;99.90
41481;DHT22;27217;51.220;5.308;2024-03-07T00:46:34;5.30;99.90
41481;DHT22;27217;51.220;5.308;2024-03-07T00:49:00;5.20;99.90
41481;DHT22;27217;51.220;5.308;2024-03-07T00:51:25;5.30;99.90
41481;DHT22;27217;51.220;5.308;2024-03-07T00:53:51;5.20;99.90
41481;DHT22;27217;51.220;5.308;2024-03-07T00:56:16;5.10;99.90
41481;DHT22;27217;51.220;5.308;2024-03-07T00:58:42;5.10;99.90
41481;DHT22;27217;51.220;5.308;2024-03-07T01:01:08;5.00;99.90
41481;DHT22;27217;51.220;5.308;2024-03-07T01:03:34;5.00;99.90
41481;DHT22;27217;51.220;5.308;2024-03-07T01:05:59;5.00;99.90
41481;DHT22;27217;51.220;5.308;2024-03-07T01:08:25;5.10;99.90
41481;DHT22;27217;51.220;5.308;2024-03-07T01:10:51;5.10;99.90
41481;DHT22;27217;51.220;5.308;2024-03-07T01:13:17;5.10;99.90
41481;DHT22;27217;51.220;5.308;2024-03-07T01:15:47;5.10;99.90
41481;DHT22;27217;51.220;5.308;2024-03-07T01:18:14;5.10;99.90
41481;DHT22;27217;51.220;5.308;2024-03-07T01:20:40;4.80;99.90
41481;DHT22;27217;51.220;5.308;2024-03-07T01:23:05;5.20;99.90
41481;DHT22;27217;51.220;5.308;2024-03-07T01:25:33;5.20;99.90
41481;DHT22;27217;51.220;5.308;2024-03-07T01:28:02;5.20;99.90
41481;DHT22;27217;51.220;5.308;2024-03-07T01:30:29;5.10;99.90
41481;DHT22;27217;51.220;5.308;2024-03-07T01:32:55;5.10;99.90
41481;DHT22;27217;51.220;5.308;2024-03-07T01:35:21;5.10;99.90
41481;DHT22;27217;51.220;5.308;2024-03-07T01:37:46;5.00;99.90
41481;DHT22;27217;51.220;5.308;2024-03-07T01:40:12;5.00;99.90
41481;DHT22;27217;51.220;5.308;2024-03-07T01:42:39;4.90;99.90
41481;DHT22;27217;51.220;5.308;2024-03-07T01:45:05;4.80;99.90
41481;DHT22;27217;51.220;5.308;2024-03-07T01:47:31;4.90;99.90
41481;DHT22;27217;51.220;5.308;2024-03-07T01:49:57;5.00;99.90
41481;DHT22;27217;51.220;5.308;2024-03-07T01:52:24;4.80;99.90
41481;DHT22;27217;51.220;5.308;2024-03-07T01:54:50;4.80;99.90
41481;DHT22;27217;51.220;5.308;2024-03-07T01:57:16;4.60;99.90
41481;DHT22;27217;51.220;5.308;2024-03-07T01:59:43;4.80;99.90
41481;DHT22;27217;51.220;5.308;2024-03-07T02:02:09;4.80;99.90
41481;DHT22;27217;51.220;5.308;2024-03-07T02:04:34;4.70;99.90
41481;DHT22;27217;51.220;5.308;2024-03-07T02:07:02;4.60;99.90
41481;DHT22;27217;51.220;5.308;2024-03-07T02:09:28;4.70;99.90
41481;DHT22;27217;51.220;5.308;2024-03-07T02:11:53;4.90;99.90
41481;DHT22;27217;51.220;5.308;2024-03-07T02:14:19;5.20;99.90
41481;DHT22;27217;51.220;5.308;2024-03-07T02:16:44;5.20;99.90
41481;DHT22;27217;51.220;5.308;2024-03-07T02:19:11;5.00;99.90
41481;DHT22;27217;51.220;5.308;2024-03-07T02:21:39;4.90;99.90
41481;DHT22;27217;51.220;5.308;2024-03-07T02:24:04;4.80;99.90
41481;DHT22;27217;51.220;5.308;2024-03-07T02:26:30;4.70;99.90
41481;DHT22;27217;51.220;5.308;2024-03-07T02:28:56;4.30;99.90
41481;DHT22;27217;51.220;5.308;2024-03-07T02:31:21;4.70;99.90
41481;DHT22;27217;51.220;5.308;2024-03-07T02:34:00;4.70;99.90
41481;DHT22;27217;51.220;5.308;2024-03-07T02:36:26;4.70;99.90
41481;DHT22;27217;51.220;5.308;2024-03-07T02:38:52;4.80;99.90
41481;DHT22;27217;51.220;5.308;2024-03-07T02:41:17;4.70;99.90
41481;DHT22;27217;51.220;5.308;2024-03-07T02:43:43;4.80;99.90
41481;DHT22;27217;51.220;5.308;2024-03-07T02:46:09;4.80;99.90
41481;DHT22;27217;51.220;5.308;2024-03-07T02:48:37;5.00;99.90
41481;DHT22;27217;51.220;5.308;2024-03-07T02:51:04;5.00;99.90
41481;DHT22;27217;51.220;5.308;2024-03-07T02:53:31;4.20;99.90
41481;DHT22;27217;51.220;5.308;2024-03-07T02:55:57;5.00;99.90
41481;DHT22;27217;51.220;5.308;2024-03-07T02:58:23;5.00;99.90
41481;DHT22;27217;51.220;5.308;2024-03-07T03:00:58;5.10;99.90
41481;DHT22;27217;51.220;5.308;2024-03-07T03:03:28;5.00;99.90
41481;DHT22;27217;51.220;5.308;2024-03-07T03:05:57;5.20;99.90
41481;DHT22;27217;51.220;5.308;2024-03-07T03:08:23;5.10;99.90
41481;DHT22;27217;51.220;5.308;2024-03-07T03:10:49;4.90;99.90
41481;DHT22;27217;51.220;5.308;2024-03-07T03:13:16;4.80;99.90
41481;DHT22;27217;51.220;5.308;2024-03-07T03:15:42;4.80;99.90
41481;DHT22;27217;51.220;5.308;2024-03-07T03:18:08;4.60;99.90
41481;DHT22;27217;51.220;5.308;2024-03-07T03:20:35;4.60;99.90
41481;DHT22;27217;51.220;5.308;2024-03-07T03:23:04;4.60;99.90
41481;DHT22;27217;51.220;5.308;2024-03-07T03:25:31;4.50;99.90
41481;DHT22;27217;51.220;5.308;2024-03-07T03:28:00;4.70;99.90
41481;DHT22;27217;51.220;5.308;2024-03-07T03:30:26;4.80;99.90
41481;DHT22;27217;51.220;5.308;2024-03-07T03:32:52;4.70;99.90
41481;DHT22;27217;51.220;5.308;2024-03-07T03:35:18;4.60;99.90
41481;DHT22;27217;51.220;5.308;2024-03-07T03:37:45;4.80;99.90
41481;DHT22;27217;51.220;5.308;2024-03-07T03:40:10;4.90;99.90
41481;DHT22;27217;51.220;5.308;2024-03-07T03:42:37;4.80;99.90
41481;DHT22;27217;51.220;5.308;2024-03-07T03:45:03;4.70;99.90
41481;DHT22;27217;51.220;5.308;2024-03-07T03:47:34;4.70;99.90
41481;DHT22;27217;51.220;5.308;2024-03-07T03:50:07;4.60;99.90
41481;DHT22;27217;51.220;5.308;2024-03-07T03:52:33;4.50;99.90
41481;DHT22;27217;51.220;5.308;2024-03-07T03:55:00;4.70;99.90
41481;DHT22;27217;51.220;5.308;2024-03-07T03:57:27;4.50;99.90
41481;DHT22;27217;51.220;5.308;2024-03-07T03:59:52;4.50;99.90
41481;DHT22;27217;51.220;5.308;2024-03-07T04:02:18;4.50;99.90
41481;DHT22;27217;51.220;5.308;2024-03-07T04:04:44;4.50;99.90
41481;DHT22;27217;51.220;5.308;2024-03-07T04:07:11;4.60;99.90
41481;DHT22;27217;51.220;5.308;2024-03-07T04:09:37;4.60;99.90
41481;DHT22;27217;51.220;5.308;2024-03-07T04:12:03;4.70;99.90
41481;DHT22;27217;51.220;5.308;2024-03-07T04:14:30;4.70;99.90
41481;DHT22;27217;51.220;5.308;2024-03-07T04:16:58;4.80;99.90
41481;DHT22;27217;51.220;5.308;2024-03-07T04:19:24;4.80;99.90
41481;DHT22;27217;51.220;5.308;2024-03-07T04:21:50;4.80;99.90
41481;DHT22;27217;51.220;5.308;2024-03-07T04:24:17;4.80;99.90
41481;DHT22;27217;51.220;5.308;2024-03-07T04:26:42;5.00;99.90
41481;DHT22;27217;51.220;5.308;2024-03-07T04:29:08;4.90;99.90
41481;DHT22;27217;51.220;5.308;2024-03-07T04:31:34;4.90;99.90
41481;DHT22;27217;51.220;5.308;2024-03-07T04:34:00;5.00;99.90
41481;DHT22;27217;51.220;5.308;2024-03-07T04:36:25;5.00;99.90
41481;DHT22;27217;51.220;5.308;2024-03-07T04:38:51;5.30;99.90
41481;DHT22;27217;51.220;5.308;2024-03-07T04:41:17;5.00;99.90
41481;DHT22;27217;51.220;5.308;2024-03-07T04:43:44;4.90;99.90
41481;DHT22;27217;51.220;5.308;2024-03-07T04:46:09;5.10;99.90
41481;DHT22;27217;51.220;5.308;2024-03-07T04:48:35;5.30;99.90
41481;DHT22;27217;51.220;5.308;2024-03-07T04:51:01;5.20;99.90
41481;DHT22;27217;51.220;5.308;2024-03-07T04:53:26;5.30;99.90
41481;DHT22;27217;51.220;5.308;2024-03-07T04:55:53;5.20;99.90
41481;DHT22;27217;51.220;5.308;2024-03-07T04:58:19;5.00;99.90
41481;DHT22;27217;51.220;5.308;2024-03-07T05:00:45;5.10;99.90
41481;DHT22;27217;51.220;5.308;2024-03-07T05:03:10;5.20;99.90
41481;DHT22;27217;51.220;5.308;2024-03-07T05:05:36;5.10;99.90
41481;DHT22;27217;51.220;5.308;2024-03-07T05:08:02;5.00;99.90
41481;DHT22;27217;51.220;5.308;2024-03-07T05:10:29;4.70;99.90
41481;DHT22;27217;51.220;5.308;2024-03-07T05:12:56;5.00;99.90
41481;DHT22;27217;51.220;5.308;2024-03-07T05:15:24;4.90;99.90
41481;DHT22;27217;51.220;5.308;2024-03-07T05:17:51;5.00;99.90
41481;DHT22;27217;51.220;5.308;2024-03-07T05:20:17;5.00;99.90
41481;DHT22;27217;51.220;5.308;2024-03-07T05:22:43;5.20;99.90
41481;DHT22;27217;51.220;5.308;2024-03-07T05:25:18;5.30;99.90
41481;DHT22;27217;51.220;5.308;2024-03-07T05:27:47;5.20;99.90
41481;DHT22;27217;51.220;5.308;2024-03-07T05:30:16;5.00;99.90
41481;DHT22;27217;51.220;5.308;2024-03-07T05:32:42;4.90;99.90
41481;DHT22;27217;51.220;5.308;2024-03-07T05:35:08;4.80;99.90
41481;DHT22;27217;51.220;5.308;2024-03-07T05:37:34;4.70;99.90
41481;DHT22;27217;51.220;5.308;2024-03-07T05:40:02;4.60;99.90
41481;DHT22;27217;51.220;5.308;2024-03-07T05:42:29;4.60;99.90
41481;DHT22;27217;51.220;5.308;2024-03-07T05:44:55;4.70;99.90
41481;DHT22;27217;51.220;5.308;2024-03-07T05:47:20;4.90;99.90
41481;DHT22;27217;51.220;5.308;2024-03-07T05:49:47;4.70;99.90
41481;DHT22;27217;51.220;5.308;2024-03-07T05:52:12;4.80;99.90
41481;DHT22;27217;51.220;5.308;2024-03-07T05:54:38;4.50;99.90
41481;DHT22;27217;51.220;5.308;2024-03-07T05:57:03;4.60;99.90
41481;DHT22;27217;51.220;5.308;2024-03-07T05:59:32;4.70;99.90
41481;DHT22;27217;51.220;5.308;2024-03-07T06:01:57;4.50;99.90
41481;DHT22;27217;51.220;5.308;2024-03-07T06:04:23;4.50;99.90
41481;DHT22;27217;51.220;5.308;2024-03-07T06:06:48;4.20;99.90
41481;DHT22;27217;51.220;5.308;2024-03-07T06:09:14;4.20;99.90
41481;DHT22;27217;51.220;5.308;2024-03-07T06:11:40;4.50;99.90
41481;DHT22;27217;51.220;5.308;2024-03-07T06:14:09;4.40;99.90
41481;DHT22;27217;51.220;5.308;2024-03-07T06:16:36;3.40;99.90
41481;DHT22;27217;51.220;5.308;2024-03-07T06:19:03;4.10;99.90
41481;DHT22;27217;51.220;5.308;2024-03-07T06:21:29;4.40;99.90
41481;DHT22;27217;51.220;5.308;2024-03-07T06:23:58;4.50;99.90
41481;DHT22;27217;51.220;5.308;2024-03-07T06:26:27;4.10;99.90
41481;DHT22;27217;51.220;5.308;2024-03-07T06:29:06;4.40;99.90
41481;DHT22;27217;51.220;5.308;2024-03-07T06:31:32;4.10;99.90
41481;DHT22;27217;51.220;5.308;2024-03-07T06:33:58;4.30;99.90
41481;DHT22;27217;51.220;5.308;2024-03-07T06:36:24;4.30;99.90
41481;DHT22;27217;51.220;5.308;2024-03-07T06:38:50;4.30;99.90
41481;DHT22;27217;51.220;5.308;2024-03-07T06:41:16;4.40;99.90
41481;DHT22;27217;51.220;5.308;2024-03-07T06:43:45;4.50;99.90
41481;DHT22;27217;51.220;5.308;2024-03-07T06:46:10;4.80;99.90
41481;DHT22;27217;51.220;5.308;2024-03-07T06:48:38;4.70;99.90
41481;DHT22;27217;51.220;5.308;2024-03-07T06:51:05;4.60;99.90
41481;DHT22;27217;51.220;5.308;2024-03-07T06:53:31;4.60;99.90
41481;DHT22;27217;51.220;5.308;2024-03-07T06:55:57;4.70;99.90
41481;DHT22;27217;51.220;5.308;2024-03-07T06:58:23;4.60;99.90
41481;DHT22;27217;51.220;5.308;2024-03-07T07:00:49;4.80;99.90
41481;DHT22;27217;51.220;5.308;2024-03-07T07:03:17;4.70;99.90
41481;DHT22;27217;51.220;5.308;2024-03-07T07:05:45;4.70;99.90
41481;DHT22;27217;51.220;5.308;2024-03-07T07:08:10;4.80;99.90
41481;DHT22;27217;51.220;5.308;2024-03-07T07:10:36;4.70;99.90
41481;DHT22;27217;51.220;5.308;2024-03-07T07:13:02;4.60;99.90
41481;DHT22;27217;51.220;5.308;2024-03-07T07:15:29;4.50;99.90
41481;DHT22;27217;51.220;5.308;2024-03-07T07:17:55;4.60;99.90
41481;DHT22;27217;51.220;5.308;2024-03-07T07:20:21;5.00;99.90
41481;DHT22;27217;51.220;5.308;2024-03-07T07:22:49;4.40;99.90
41481;DHT22;27217;51.220;5.308;2024-03-07T07:25:15;4.90;99.90
41481;DHT22;27217;51.220;5.308;2024-03-07T07:27:46;5.10;99.90
41481;DHT22;27217;51.220;5.308;2024-03-07T07:30:13;5.30;99.90
41481;DHT22;27217;51.220;5.308;2024-03-07T07:32:39;5.50;99.90
41481;DHT22;27217;51.220;5.308;2024-03-07T07:35:05;5.60;99.90
41481;DHT22;27217;51.220;5.308;2024-03-07T07:37:40;5.70;99.90
41481;DHT22;27217;51.220;5.308;2024-03-07T07:40:07;5.20;99.90
41481;DHT22;27217;51.220;5.308;2024-03-07T07:42:38;5.30;99.90
41481;DHT22;27217;51.220;5.308;2024-03-07T07:45:08;5.30;99.90
41481;DHT22;27217;51.220;5.308;2024-03-07T07:47:43;5.40;99.90
41481;DHT22;27217;51.220;5.308;2024-03-07T07:50:09;5.40;99.90
41481;DHT22;27217;51.220;5.308;2024-03-07T07:52:52;5.40;99.90
41481;DHT22;27217;51.220;5.308;2024-03-07T07:55:19;5.30;99.90
41481;DHT22;27217;51.220;5.308;2024-03-07T07:57:50;5.30;99.90
41481;DHT22;27217;51.220;5.308;2024-03-07T08:00:20;5.30;99.90
41481;DHT22;27217;51.220;5.308;2024-03-07T08:02:55;5.10;99.90
41481;DHT22;27217;51.220;5.308;2024-03-07T08:05:23;5.20;99.90
41481;DHT22;27217;51.220;5.308;2024-03-07T08:07:49;5.50;99.90
41481;DHT22;27217;51.220;5.308;2024-03-07T08:10:16;5.60;99.90
41481;DHT22;27217;51.220;5.308;2024-03-07T08:12:42;5.70;99.90
41481;DHT22;27217;51.220;5.308;2024-03-07T08:15:09;5.80;99.90
41481;DHT22;27217;51.220;5.308;2024-03-07T08:18:00;5.90;99.90
41481;DHT22;27217;51.220;5.308;2024-03-07T08:20:24;6.00;99.90
41481;DHT22;27217;51.220;5.308;2024-03-07T08:22:54;6.10;99.90
41481;DHT22;27217;51.220;5.308;2024-03-07T08:25:21;6.10;99.90
41481;DHT22;27217;51.220;5.308;2024-03-07T08:27:49;6.20;99.90
41481;DHT22;27217;51.220;5.308;2024-03-07T08:30:14;6.20;99.90
41481;DHT22;27217;51.220;5.308;2024-03-07T08:32:41;6.30;99.90
41481;DHT22;27217;51.220;5.308;2024-03-07T08:35:07;6.40;99.90
41481;DHT22;27217;51.220;5.308;2024-03-07T08:37:37;6.40;99.90
41481;DHT22;27217;51.220;5.308;2024-03-07T08:40:03;6.50;99.90
41481;DHT22;27217;51.220;5.308;2024-03-07T08:42:32;6.50;99.90
41481;DHT22;27217;51.220;5.308;2024-03-07T08:44:59;6.60;99.90
41481;DHT22;27217;51.220;5.308;2024-03-07T08:47:25;6.50;99.90
41481;DHT22;27217;51.220;5.308;2024-03-07T08:49:50;6.50;99.90
41481;DHT22;27217;51.220;5.308;2024-03-07T08:52:16;6.40;99.90
41481;DHT22;27217;51.220;5.308;2024-03-07T08:54:42;6.70;99.90
41481;DHT22;27217;51.220;5.308;2024-03-07T08:57:08;6.80;99.90
41481;DHT22;27217;51.220;5.308;2024-03-07T08:59:34;7.00;99.90
41481;DHT22;27217;51.220;5.308;2024-03-07T09:02:00;7.00;99.90
41481;DHT22;27217;51.220;5.308;2024-03-07T09:04:27;7.10;99.90
41481;DHT22;27217;51.220;5.308;2024-03-07T09:09:23;7.10;99.90
41481;DHT22;27217;51.220;5.308;2024-03-07T09:11:53;7.20;99.90
41481;DHT22;27217;51.220;5.308;2024-03-07T09:14:18;7.40;99.90
41481;DHT22;27217;51.220;5.308;2024-03-07T09:16:44;7.40;99.90
41481;DHT22;27217;51.220;5.308;2024-03-07T09:19:10;7.60;99.90
41481;DHT22;27217;51.220;5.308;2024-03-07T09:21:39;7.70;99.90
41481;DHT22;27217;51.220;5.308;2024-03-07T09:24:15;7.80;99.90
41481;DHT22;27217;51.220;5.308;2024-03-07T09:26:41;8.50;99.90
41481;DHT22;27217;51.220;5.308;2024-03-07T09:29:07;8.20;99.90
41481;DHT22;27217;51.220;5.308;2024-03-07T09:31:33;8.10;99.90
41481;DHT22;27217;51.220;5.308;2024-03-07T09:33:58;8.50;99.90
41481;DHT22;27217;51.220;5.308;2024-03-07T09:36:24;8.70;99.90
41481;DHT22;27217;51.220;5.308;2024-03-07T09:38:50;8.40;99.90
41481;DHT22;27217;51.220;5.308;2024-03-07T09:41:16;8.30;99.90
41481;DHT22;27217;51.220;5.308;2024-03-07T09:43:49;8.10;99.90
41481;DHT22;27217;51.220;5.308;2024-03-07T09:46:16;8.20;99.90
41481;DHT22;27217;51.220;5.308;2024-03-07T09:48:43;8.30;99.90
41481;DHT22;27217;51.220;5.308;2024-03-07T09:51:09;8.20;99.90
41481;DHT22;27217;51.220;5.308;2024-03-07T09:53:36;8.70;99.90
41481;DHT22;27217;51.220;5.308;2024-03-07T09:56:03;8.70;99.90
41481;DHT22;27217;51.220;5.308;2024-03-07T09:58:30;8.80;99.90
41481;DHT22;27217;51.220;5.308;2024-03-07T10:00:56;8.90;99.90
41481;DHT22;27217;51.220;5.308;2024-03-07T10:03:23;9.20;99.90
41481;DHT22;27217;51.220;5.308;2024-03-07T10:05:50;9.50;99.90
41481;DHT22;27217;51.220;5.308;2024-03-07T10:14:24;10.00;99.90
41481;DHT22;27217;51.220;5.308;2024-03-07T10:16:50;10.40;99.90
41481;DHT22;27217;51.220;5.308;2024-03-07T10:19:15;10.60;99.90
41481;DHT22;27217;51.220;5.308;2024-03-07T10:21:41;10.30;99.90
41481;DHT22;27217;51.220;5.308;2024-03-07T10:27:10;9.90;99.90
41481;DHT22;27217;51.220;5.308;2024-03-07T10:29:35;10.40;99.90
41481;DHT22;27217;51.220;5.308;2024-03-07T10:32:01;10.50;99.90
41481;DHT22;27217;51.220;5.308;2024-03-07T10:40:42;11.10;99.90
41481;DHT22;27217;51.220;5.308;2024-03-07T10:46:11;11.40;99.90
41481;DHT22;27217;51.220;5.308;2024-03-07T10:51:44;11.70;99.90
41481;DHT22;27217;51.220;5.308;2024-03-07T10:54:22;11.80;99.90
41481;DHT22;27217;51.220;5.308;2024-03-07T10:59:31;12.00;98.80
41481;DHT22;27217;51.220;5.308;2024-03-07T11:17:14;12.90;94.30
41481;DHT22;27217;51.220;5.308;2024-03-07T11:19:40;14.10;77.00
41481;DHT22;27217;51.220;5.308;2024-03-07T11:22:07;14.20;73.40
41481;DHT22;27217;51.220;5.308;2024-03-07T11:24:42;14.50;67.10
41481;DHT22;27217;51.220;5.308;2024-03-07T11:27:12;14.30;68.60
41481;DHT22;27217;51.220;5.308;2024-03-07T11:29:43;14.90;64.60
41481;DHT22;27217;51.220;5.308;2024-03-07T11:32:09;14.60;63.70
41481;DHT22;27217;51.220;5.308;2024-03-07T11:34:43;14.10;69.20
41481;DHT22;27217;51.220;5.308;2024-03-07T11:37:16;13.30;77.60
41481;DHT22;27217;51.220;5.308;2024-03-07T11:39:48;13.50;74.70
41481;DHT22;27217;51.220;5.308;2024-03-07T11:48:21;12.00;90.50
41481;DHT22;27217;51.220;5.308;2024-03-07T11:53:50;15.50;59.40
41481;DHT22;27217;51.220;5.308;2024-03-07T11:56:17;15.60;55.80
41481;DHT22;27217;51.220;5.308;2024-03-07T11:58:43;14.70;58.10
41481;DHT22;27217;51.220;5.308;2024-03-07T12:01:09;14.10;61.10
41481;DHT22;27217;51.220;5.308;2024-03-07T12:03:38;13.80;62.50
41481;DHT22;27217;51.220;5.308;2024-03-07T12:06:04;14.30;59.70
41481;DHT22;27217;51.220;5.308;2024-03-07T12:08:30;14.30;58.70
41481;DHT22;27217;51.220;5.308;2024-03-07T12:10:56;13.10;62.10
41481;DHT22;27217;51.220;5.308;2024-03-07T12:13:22;12.50;72.10
41481;DHT22;27217;51.220;5.308;2024-03-07T12:15:50;12.60;67.00
41481;DHT22;27217;51.220;5.308;2024-03-07T12:18:17;12.10;73.20
41481;DHT22;27217;51.220;5.308;2024-03-07T12:20:44;13.00;69.10
41481;DHT22;27217;51.220;5.308;2024-03-07T12:23:16;15.00;56.70
41481;DHT22;27217;51.220;5.308;2024-03-07T12:25:44;17.10;47.10
41481;DHT22;27217;51.220;5.308;2024-03-07T12:28:11;18.00;41.70
41481;DHT22;27217;51.220;5.308;2024-03-07T12:30:47;16.00;42.90
41481;DHT22;27217;51.220;5.308;2024-03-07T12:33:13;14.60;46.40
41481;DHT22;27217;51.220;5.308;2024-03-07T12:35:52;13.80;52.40
41481;DHT22;27217;51.220;5.308;2024-03-07T12:41:22;15.10;47.80
41481;DHT22;27217;51.220;5.308;2024-03-07T12:43:47;16.50;43.40
41481;DHT22;27217;51.220;5.308;2024-03-07T12:49:17;17.20;40.40
41481;DHT22;27217;51.220;5.308;2024-03-07T12:51:42;17.30;39.10
41481;DHT22;27217;51.220;5.308;2024-03-07T12:54:08;18.50;36.80
41481;DHT22;27217;51.220;5.308;2024-03-07T12:56:35;17.40;38.20
41481;DHT22;27217;51.220;5.308;2024-03-07T13:02:08;18.40;37.00
41481;DHT22;27217;51.220;5.308;2024-03-07T13:04:34;18.70;36.40
41481;DHT22;27217;51.220;5.308;2024-03-07T13:07:03;20.50;33.00
41481;DHT22;27217;51.220;5.308;2024-03-07T13:09:30;18.50;35.20
41481;DHT22;27217;51.220;5.308;2024-03-07T13:11:56;18.20;36.70
41481;DHT22;27217;51.220;5.308;2024-03-07T13:17:25;16.90;38.00
41481;DHT22;27217;51.220;5.308;2024-03-07T13:25:53;17.50;37.70
41481;DHT22;27217;51.220;5.308;2024-03-07T13:31:25;17.70;36.70
41481;DHT22;27217;51.220;5.308;2024-03-07T13:33:51;17.60;35.70
41481;DHT22;27217;51.220;5.308;2024-03-07T13:36:17;18.50;34.80
41481;DHT22;27217;51.220;5.308;2024-03-07T13:38:54;18.10;36.00
41481;DHT22;27217;51.220;5.308;2024-03-07T13:41:21;18.30;36.30
41481;DHT22;27217;51.220;5.308;2024-03-07T13:43:47;18.40;35.30
41481;DHT22;27217;51.220;5.308;2024-03-07T13:46:13;17.80;36.70
41481;DHT22;27217;51.220;5.308;2024-03-07T13:48:40;17.40;37.50
41481;DHT22;27217;51.220;5.308;2024-03-07T13:51:10;17.30;38.20
41481;DHT22;27217;51.220;5.308;2024-03-07T13:53:40;17.60;36.30
41481;DHT22;27217;51.220;5.308;2024-03-07T14:02:13;17.50;37.40
41481;DHT22;27217;51.220;5.308;2024-03-07T14:19:43;19.90;33.70
41481;DHT22;27217;51.220;5.308;2024-03-07T14:25:03;19.60;33.60
41481;DHT22;27217;51.220;5.308;2024-03-07T14:27:38;19.50;34.00
41481;DHT22;27217;51.220;5.308;2024-03-07T14:30:36;19.40;34.30
41481;DHT22;27217;51.220;5.308;2024-03-07T14:33:05;19.90;33.90
41481;DHT22;27217;51.220;5.308;2024-03-07T14:40:37;19.60;33.50
41481;DHT22;27217;51.220;5.308;2024-03-07T14:43:03;19.80;33.70
41481;DHT22;27217;51.220;5.308;2024-03-07T14:45:39;19.40;33.90
41481;DHT22;27217;51.220;5.308;2024-03-07T14:48:08;19.00;33.70
41481;DHT22;27217;51.220;5.308;2024-03-07T14:50:35;18.10;35.30
41481;DHT22;27217;51.220;5.308;2024-03-07T14:53:03;18.30;35.10
41481;DHT22;27217;51.220;5.308;2024-03-07T14:55:30;17.90;35.50
41481;DHT22;27217;51.220;5.308;2024-03-07T14:57:55;17.80;35.40
41481;DHT22;27217;51.220;5.308;2024-03-07T15:00:21;18.30;35.50
41481;DHT22;27217;51.220;5.308;2024-03-07T15:02:52;18.50;34.90
41481;DHT22;27217;51.220;5.308;2024-03-07T15:05:27;18.80;34.90
41481;DHT22;27217;51.220;5.308;2024-03-07T15:07:53;19.00;34.40
41481;DHT22;27217;51.220;5.308;2024-03-07T15:12:49;20.00;33.60
41481;DHT22;27217;51.220;5.308;2024-03-07T15:15:15;19.60;33.80
41481;DHT22;27217;51.220;5.308;2024-03-07T15:17:43;19.80;33.90
41481;DHT22;27217;51.220;5.308;2024-03-07T15:20:10;19.80;33.40
41481;DHT22;27217;51.220;5.308;2024-03-07T15:25:20;19.10;34.00
41481;DHT22;27217;51.220;5.308;2024-03-07T15:27:48;18.70;35.60
41481;DHT22;27217;51.220;5.308;2024-03-07T15:30:18;19.20;34.60
41481;DHT22;27217;51.220;5.308;2024-03-07T15:32:45;19.40;34.10
41481;DHT22;27217;51.220;5.308;2024-03-07T15:35:11;18.80;34.80
41481;DHT22;27217;51.220;5.308;2024-03-07T15:37:43;17.50;36.20
41481;DHT22;27217;51.220;5.308;2024-03-07T15:40:09;15.90;40.10
41481;DHT22;27217;51.220;5.308;2024-03-07T15:42:39;14.60;43.40
41481;DHT22;27217;51.220;5.308;2024-03-07T15:45:08;13.80;46.70
41481;DHT22;27217;51.220;5.308;2024-03-07T15:47:45;13.90;48.10
41481;DHT22;27217;51.220;5.308;2024-03-07T15:50:11;15.00;45.10
41481;DHT22;27217;51.220;5.308;2024-03-07T15:52:43;15.20;43.70
41481;DHT22;27217;51.220;5.308;2024-03-07T15:55:09;14.60;46.00
41481;DHT22;27217;51.220;5.308;2024-03-07T15:57:41;14.40;50.60
41481;DHT22;27217;51.220;5.308;2024-03-07T16:00:07;13.90;55.50
41481;DHT22;27217;51.220;5.308;2024-03-07T16:03:03;13.50;59.50
41481;DHT22;27217;51.220;5.308;2024-03-07T16:05:30;13.60;61.10
41481;DHT22;27217;51.220;5.308;2024-03-07T16:07:57;13.50;62.90
41481;DHT22;27217;51.220;5.308;2024-03-07T16:10:26;13.00;67.90
41481;DHT22;27217;51.220;5.308;2024-03-07T16:12:53;12.80;73.20
41481;DHT22;27217;51.220;5.308;2024-03-07T16:15:19;12.80;75.30
41481;DHT22;27217;51.220;5.308;2024-03-07T16:17:48;12.80;74.60
41481;DHT22;27217;51.220;5.308;2024-03-07T16:20:14;12.70;77.50
41481;DHT22;27217;51.220;5.308;2024-03-07T16:22:42;12.90;77.50
41481;DHT22;27217;51.220;5.308;2024-03-07T16:25:08;13.40;75.40
41481;DHT22;27217;51.220;5.308;2024-03-07T16:27:37;14.20;66.70
41481;DHT22;27217;51.220;5.308;2024-03-07T16:30:11;14.20;63.30
41481;DHT22;27217;51.220;5.308;2024-03-07T16:32:42;13.10;75.90
41481;DHT22;27217;51.220;5.308;2024-03-07T16:35:08;12.70;83.10
41481;DHT22;27217;51.220;5.308;2024-03-07T16:37:34;12.50;87.40
41481;DHT22;27217;51.220;5.308;2024-03-07T16:40:00;12.40;90.10
41481;DHT22;27217;51.220;5.308;2024-03-07T16:42:26;12.00;92.50
41481;DHT22;27217;51.220;5.308;2024-03-07T16:44:52;11.70;94.80
41481;DHT22;27217;51.220;5.308;2024-03-07T16:47:18;11.60;96.00
41481;DHT22;27217;51.220;5.308;2024-03-07T16:49:48;11.50;96.90
41481;DHT22;27217;51.220;5.308;2024-03-07T16:52:15;11.20;98.90
41481;DHT22;27217;51.220;5.308;2024-03-07T16:54:40;11.20;99.30
41481;DHT22;27217;51.220;5.308;2024-03-07T16:57:07;11.60;98.00
41481;DHT22;27217;51.220;5.308;2024-03-07T16:59:33;11.60;99.90
41481;DHT22;27217;51.220;5.308;2024-03-07T17:01:59;11.70;98.20
41481;DHT22;27217;51.220;5.308;2024-03-07T17:04:25;12.00;96.40
41481;DHT22;27217;51.220;5.308;2024-03-07T17:06:51;11.60;98.20
41481;DHT22;27217;51.220;5.308;2024-03-07T17:09:17;11.30;99.80
41481;DHT22;27217;51.220;5.308;2024-03-07T17:11:47;10.90;99.90
41481;DHT22;27217;51.220;5.308;2024-03-07T17:14:12;10.80;99.90
41481;DHT22;27217;51.220;5.308;2024-03-07T17:16:39;11.00;99.90
41481;DHT22;27217;51.220;5.308;2024-03-07T17:19:04;10.90;99.90
41481;DHT22;27217;51.220;5.308;2024-03-07T17:21:35;10.60;99.90
41481;DHT22;27217;51.220;5.308;2024-03-07T17:24:01;10.40;99.90
41481;DHT22;27217;51.220;5.308;2024-03-07T17:26:29;10.30;99.90